Time;durP1;ratioP1;P1;durP2;ratioP2;P2;SDS_P1;SDS_P2;PMS_P1;PMS_P2;Temp;Humidity;BMP_temperature;BMP_pressure;BME280_temperature;BME280_humidity;BME280_pressure;Samples;Min_cycle;Max_cycle;Signal;HPM_P1;HPM_P2
2023/12/16 00:01:22;;;;;;;17.90;9.40;;;4.70;99.90;;;;;;8266626;28;20420;-68
2023/12/16 00:05:24;;;;;;;18.43;10.23;;;4.70;99.90;;;;;;8272018;28;20273;-68
2023/12/16 00:09:24;;;;;;;17.27;9.73;;;4.60;99.90;;;;;;8269091;28;20193;-67
2023/12/16 00:13:25;;;;;;;20.60;10.37;;;4.70;99.90;;;;;;8276111;28;20294;-68
2023/12/16 00:17:26;;;;;;;22.07;10.63;;;4.60;99.90;;;;;;8275758;28;20215;-70
2023/12/16 00:21:27;;;;;;;22.50;10.40;;;4.60;99.90;;;;;;8275764;28;20187;-68
2023/12/16 00:25:27;;;;;;;24.50;12.20;;;4.60;99.90;;;;;;8275088;28;20345;-68
2023/12/16 00:29:28;;;;;;;26.67;11.37;;;4.70;99.90;;;;;;8276866;28;20533;-68
2023/12/16 00:33:29;;;;;;;19.20;11.80;;;4.70;99.90;;;;;;8276011;28;20216;-67
2023/12/16 00:37:29;;;;;;;26.60;12.80;;;4.70;99.90;;;;;;8273813;28;20180;-68
2023/12/16 00:41:30;;;;;;;22.60;11.77;;;4.80;99.90;;;;;;8270144;28;20219;-67
2023/12/16 00:45:31;;;;;;;25.90;12.10;;;4.80;99.90;;;;;;8276188;28;20209;-67
2023/12/16 00:49:31;;;;;;;25.43;12.57;;;4.90;99.90;;;;;;8275405;28;20242;-68
2023/12/16 00:53:32;;;;;;;22.57;12.20;;;4.90;99.90;;;;;;8272792;28;20423;-67
2023/12/16 00:57:33;;;;;;;19.57;12.03;;;5.00;99.90;;;;;;8274336;28;20190;-67
2023/12/16 01:01:33;;;;;;;26.20;12.30;;;5.00;99.90;;;;;;8274075;28;20191;-69
2023/12/16 01:05:37;;;;;;;21.67;11.70;;;5.00;99.90;;;;;;8274994;28;20206;-69
2023/12/16 01:09:38;;;;;;;24.27;12.67;;;5.00;99.90;;;;;;8274837;28;20183;-68
2023/12/16 01:13:39;;;;;;;16.60;10.97;;;4.90;99.90;;;;;;8274488;28;20218;-68
2023/12/16 01:17:40;;;;;;;24.23;11.87;;;5.00;99.90;;;;;;8277331;28;20209;-68
2023/12/16 01:21:42;;;;;;;23.57;11.70;;;5.00;99.90;;;;;;8272004;28;20195;-69
2023/12/16 01:25:43;;;;;;;21.17;12.03;;;5.00;99.90;;;;;;8277756;28;20199;-67
2023/12/16 01:29:44;;;;;;;24.63;12.87;;;5.00;99.90;;;;;;8274689;28;20222;-68
2023/12/16 01:33:45;;;;;;;22.70;12.77;;;5.00;99.90;;;;;;8275946;28;20265;-67
2023/12/16 01:37:45;;;;;;;26.13;13.27;;;5.00;99.90;;;;;;8276491;28;20187;-67
2023/12/16 01:41:46;;;;;;;25.53;13.13;;;5.00;99.90;;;;;;8275276;28;20206;-68
2023/12/16 01:45:48;;;;;;;24.40;13.17;;;5.00;99.90;;;;;;8270229;28;20203;-68
2023/12/16 01:49:48;;;;;;;23.40;12.23;;;5.00;99.90;;;;;;8278557;28;20382;-67
2023/12/16 01:53:49;;;;;;;20.80;13.37;;;5.00;99.90;;;;;;8275152;28;20202;-69
2023/12/16 01:57:50;;;;;;;29.27;12.77;;;5.00;99.90;;;;;;8277393;28;20222;-68
2023/12/16 02:01:51;;;;;;;23.83;12.37;;;5.10;99.90;;;;;;8275676;28;20215;-69
2023/12/16 02:05:52;;;;;;;27.63;12.40;;;5.00;99.90;;;;;;8272871;28;20191;-70
2023/12/16 02:09:55;;;;;;;21.23;11.70;;;5.00;99.90;;;;;;8273681;28;20195;-68
2023/12/16 02:13:55;;;;;;;19.67;10.80;;;5.10;99.90;;;;;;8268362;28;20256;-68
2023/12/16 02:17:56;;;;;;;16.70;10.23;;;5.00;99.90;;;;;;8286586;28;20215;-68
2023/12/16 02:21:57;;;;;;;14.87;9.77;;;5.00;99.90;;;;;;8269205;28;20190;-68
2023/12/16 02:25:58;;;;;;;14.83;9.40;;;5.00;99.90;;;;;;8277523;28;20270;-68
2023/12/16 02:29:58;;;;;;;14.20;9.03;;;5.00;99.90;;;;;;8266183;28;20191;-68
2023/12/16 02:33:59;;;;;;;16.60;8.97;;;5.00;99.90;;;;;;8265455;28;20229;-68
2023/12/16 02:38:00;;;;;;;17.67;10.23;;;5.00;99.90;;;;;;8262849;28;20187;-68
2023/12/16 02:42:01;;;;;;;18.07;11.03;;;5.00;99.90;;;;;;8266721;28;20215;-69
2023/12/16 02:46:01;;;;;;;17.17;12.00;;;5.00;99.90;;;;;;8265909;28;20300;-69
2023/12/16 02:50:03;;;;;;;17.60;10.93;;;5.00;99.90;;;;;;8276891;28;20199;-68
2023/12/16 02:54:04;;;;;;;15.03;10.13;;;5.00;99.90;;;;;;8268176;28;20306;-67
2023/12/16 02:58:05;;;;;;;19.87;10.30;;;5.00;99.90;;;;;;8267465;28;20550;-68
2023/12/16 03:02:06;;;;;;;20.73;10.43;;;5.00;99.90;;;;;;8262889;28;20190;-68
2023/12/16 03:06:07;;;;;;;14.60;10.03;;;5.00;99.90;;;;;;8267256;28;20274;-68
2023/12/16 03:10:08;;;;;;;18.93;11.63;;;5.00;99.90;;;;;;8261619;28;20195;-68
2023/12/16 03:14:09;;;;;;;21.27;12.00;;;5.00;99.90;;;;;;8267309;28;20238;-67
2023/12/16 03:18:10;;;;;;;24.80;12.83;;;5.10;99.90;;;;;;8265345;28;20195;-69
2023/12/16 03:22:11;;;;;;;23.43;12.47;;;5.10;99.90;;;;;;8271432;28;20190;-68
2023/12/16 03:26:11;;;;;;;27.10;12.60;;;5.10;99.90;;;;;;8263433;28;20200;-67
2023/12/16 03:30:12;;;;;;;22.37;12.97;;;5.10;99.90;;;;;;8274866;28;20189;-69
2023/12/16 03:34:13;;;;;;;25.33;13.17;;;5.10;99.90;;;;;;8273392;28;20199;-68
2023/12/16 03:38:14;;;;;;;22.13;13.40;;;5.10;99.90;;;;;;8283584;28;20192;-69
2023/12/16 03:42:15;;;;;;;25.03;13.80;;;5.10;99.90;;;;;;8268722;28;20207;-70
2023/12/16 03:46:17;;;;;;;21.83;13.27;;;5.10;99.90;;;;;;8273962;28;20238;-68
2023/12/16 03:50:17;;;;;;;27.30;13.73;;;5.10;99.90;;;;;;8271640;28;20192;-69
2023/12/16 03:54:18;;;;;;;26.77;13.37;;;5.20;99.90;;;;;;8272210;28;20203;-68
2023/12/16 03:58:19;;;;;;;21.17;13.13;;;5.20;99.90;;;;;;8271048;28;20187;-68
2023/12/16 04:02:20;;;;;;;31.27;13.57;;;5.20;99.90;;;;;;8273147;28;20187;-67
2023/12/16 04:06:20;;;;;;;25.57;13.03;;;5.30;99.90;;;;;;8263910;28;20195;-68
2023/12/16 04:10:21;;;;;;;22.30;12.57;;;5.30;99.90;;;;;;8271513;28;20269;-68
2023/12/16 04:14:22;;;;;;;23.90;13.53;;;5.30;99.90;;;;;;8265559;28;20224;-69
2023/12/16 04:18:23;;;;;;;25.13;12.93;;;5.30;99.90;;;;;;8268711;28;20245;-69
2023/12/16 04:22:24;;;;;;;22.07;12.87;;;5.30;99.90;;;;;;8269140;28;20184;-68
2023/12/16 04:26:24;;;;;;;25.60;13.13;;;5.30;99.90;;;;;;8270464;28;20205;-69
2023/12/16 04:30:25;;;;;;;19.63;12.33;;;5.40;99.90;;;;;;8266024;28;20189;-68
2023/12/16 04:34:26;;;;;;;21.67;13.77;;;5.40;99.90;;;;;;8272781;28;20211;-69
2023/12/16 04:38:26;;;;;;;22.40;12.70;;;5.40;99.90;;;;;;8268611;28;20229;-69
2023/12/16 04:42:27;;;;;;;25.70;13.43;;;5.40;99.90;;;;;;8273438;28;20212;-68
2023/12/16 04:46:28;;;;;;;21.03;12.40;;;5.40;99.90;;;;;;8271374;28;20210;-68
2023/12/16 04:50:28;;;;;;;20.30;12.07;;;5.40;99.90;;;;;;8269159;28;20247;-69
2023/12/16 04:54:29;;;;;;;22.43;11.70;;;5.40;99.90;;;;;;8271385;28;20277;-66
2023/12/16 04:58:30;;;;;;;24.27;12.37;;;5.40;99.90;;;;;;8269891;28;20184;-67
2023/12/16 05:02:31;;;;;;;21.17;12.93;;;5.50;99.90;;;;;;8271694;28;20187;-69
2023/12/16 05:06:31;;;;;;;23.17;12.40;;;5.50;99.90;;;;;;8270456;28;20210;-68
2023/12/16 05:10:32;;;;;;;28.40;14.00;;;5.50;99.90;;;;;;8271093;28;20189;-68
2023/12/16 05:14:33;;;;;;;26.43;13.83;;;5.50;99.90;;;;;;8267428;28;20218;-70
2023/12/16 05:18:33;;;;;;;30.63;14.77;;;5.50;99.90;;;;;;8269728;28;20206;-68
2023/12/16 05:22:34;;;;;;;28.43;14.50;;;5.50;99.90;;;;;;8271620;28;20217;-68
2023/12/16 05:26:35;;;;;;;29.30;16.33;;;5.50;99.90;;;;;;8280572;28;20202;-68
2023/12/16 05:30:36;;;;;;;31.60;16.37;;;5.50;99.90;;;;;;8273055;28;20198;-68
2023/12/16 05:34:37;;;;;;;26.50;15.13;;;5.50;99.90;;;;;;8268836;28;20203;-68
2023/12/16 05:38:38;;;;;;;30.90;16.53;;;5.50;99.90;;;;;;8271064;28;20193;-70
2023/12/16 05:42:42;;;;;;;32.47;16.13;;;5.60;99.90;;;;;;8268591;28;20203;-70
2023/12/16 05:46:42;;;;;;;26.60;14.53;;;5.50;99.90;;;;;;8270256;28;20213;-68
2023/12/16 05:50:43;;;;;;;29.80;15.60;;;5.60;99.90;;;;;;8267666;28;20211;-67
2023/12/16 05:54:44;;;;;;;29.23;14.57;;;5.60;99.90;;;;;;8270184;28;20219;-66
2023/12/16 05:58:45;;;;;;;29.80;15.90;;;5.60;99.90;;;;;;8268942;28;20195;-66
2023/12/16 06:02:45;;;;;;;32.17;15.33;;;5.60;99.90;;;;;;8268767;28;20190;-66
2023/12/16 06:06:46;;;;;;;33.37;16.93;;;5.60;99.90;;;;;;8271206;28;20204;-67
2023/12/16 06:10:47;;;;;;;28.67;16.00;;;5.60;99.90;;;;;;8267383;28;20203;-66
2023/12/16 06:14:47;;;;;;;33.13;16.27;;;5.60;99.90;;;;;;8270580;28;20257;-69
2023/12/16 06:18:49;;;;;;;29.70;15.50;;;5.60;99.90;;;;;;8270575;28;20310;-69
2023/12/16 06:22:50;;;;;;;32.43;14.80;;;5.50;99.90;;;;;;8262614;28;20179;-69
2023/12/16 06:26:52;;;;;;;27.90;15.17;;;5.60;99.90;;;;;;8269430;28;20191;-68
2023/12/16 06:30:53;;;;;;;29.17;14.33;;;5.60;99.90;;;;;;8270612;28;20187;-70
2023/12/16 06:34:54;;;;;;;22.97;13.47;;;5.50;99.90;;;;;;8264381;28;20233;-68
2023/12/16 06:38:54;;;;;;;25.10;14.03;;;5.50;99.90;;;;;;8283772;28;20214;-68
2023/12/16 06:42:55;;;;;;;20.00;13.20;;;5.40;99.90;;;;;;8284394;28;20203;-68
2023/12/16 06:46:56;;;;;;;26.20;12.57;;;5.30;99.90;;;;;;8263682;28;20205;-67
2023/12/16 06:50:57;;;;;;;26.57;13.90;;;5.20;99.90;;;;;;8268598;28;20285;-68
2023/12/16 06:54:58;;;;;;;28.37;13.97;;;5.10;99.90;;;;;;8273077;28;20225;-68
2023/12/16 06:58:59;;;;;;;26.37;15.30;;;5.00;99.90;;;;;;8276681;28;20199;-68
2023/12/16 07:03:01;;;;;;;28.37;14.63;;;5.10;99.90;;;;;;8274712;28;20215;-72
2023/12/16 07:07:02;;;;;;;28.00;13.77;;;5.00;99.90;;;;;;8274467;28;20192;-69
2023/12/16 07:11:06;;;;;;;23.70;13.17;;;5.10;99.90;;;;;;8278844;28;20192;-70
2023/12/16 07:15:07;;;;;;;30.07;13.90;;;5.20;99.90;;;;;;8267433;28;20262;-68
2023/12/16 07:19:08;;;;;;;26.90;13.50;;;5.30;99.90;;;;;;8268903;28;21544;-68
2023/12/16 07:23:09;;;;;;;23.40;12.37;;;5.30;99.90;;;;;;8269727;28;20264;-70
2023/12/16 07:27:13;;;;;;;26.50;12.13;;;5.30;99.90;;;;;;8281168;28;20195;-71
2023/12/16 07:31:13;;;;;;;27.80;12.70;;;5.40;99.90;;;;;;8277914;28;20288;-69
2023/12/16 07:35:15;;;;;;;21.83;11.30;;;5.50;99.90;;;;;;8274058;28;20692;-68
2023/12/16 07:39:15;;;;;;;26.27;10.37;;;5.50;99.90;;;;;;8266909;28;20462;-68
2023/12/16 07:43:16;;;;;;;24.53;10.70;;;5.50;99.90;;;;;;8270834;28;20209;-70
2023/12/16 07:47:17;;;;;;;18.10;9.63;;;5.60;99.90;;;;;;8274786;28;20298;-69
2023/12/16 07:51:25;;;;;;;22.00;9.63;;;5.60;99.90;;;;;;8272909;28;20272;-68
2023/12/16 07:55:27;;;;;;;20.70;10.07;;;5.60;99.90;;;;;;8277783;28;20222;-69
2023/12/16 07:59:30;;;;;;;19.73;10.00;;;5.70;99.90;;;;;;8274914;28;20198;-69
2023/12/16 08:03:30;;;;;;;16.93;8.80;;;5.60;99.90;;;;;;8269282;28;20213;-69
2023/12/16 08:07:31;;;;;;;22.27;8.80;;;5.60;99.90;;;;;;8275385;28;20220;-68
2023/12/16 08:11:33;;;;;;;15.63;9.23;;;5.70;99.90;;;;;;8270701;28;20204;-70
2023/12/16 08:15:34;;;;;;;20.63;9.03;;;5.80;99.90;;;;;;8279046;28;20203;-68
2023/12/16 08:19:35;;;;;;;18.80;8.83;;;5.80;99.90;;;;;;8268227;28;20239;-68
2023/12/16 08:23:35;;;;;;;15.43;8.27;;;5.90;99.90;;;;;;8274784;28;20179;-68
2023/12/16 08:27:36;;;;;;;16.33;8.83;;;6.00;99.90;;;;;;8275650;28;20272;-67
2023/12/16 08:31:37;;;;;;;20.73;8.57;;;6.10;99.90;;;;;;8272733;28;20190;-68
2023/12/16 08:35:37;;;;;;;14.37;7.87;;;6.10;99.90;;;;;;8270686;28;20350;-68
2023/12/16 08:39:38;;;;;;;16.87;7.87;;;6.20;99.90;;;;;;8265402;28;20191;-69
2023/12/16 08:43:41;;;;;;;18.07;7.13;;;6.20;99.90;;;;;;8271078;28;20207;-70
2023/12/16 08:47:42;;;;;;;15.80;7.83;;;6.20;99.90;;;;;;8272734;28;20260;-69
2023/12/16 08:51:43;;;;;;;20.17;8.10;;;6.30;99.90;;;;;;8271581;28;20191;-67
2023/12/16 08:55:44;;;;;;;16.73;7.50;;;6.40;99.90;;;;;;8269561;28;20245;-68
2023/12/16 08:59:45;;;;;;;14.20;7.43;;;6.60;99.90;;;;;;8277666;28;20191;-66
2023/12/16 09:03:46;;;;;;;15.23;7.27;;;6.60;99.90;;;;;;8275060;28;20396;-67
2023/12/16 09:07:47;;;;;;;14.50;6.83;;;6.70;99.90;;;;;;8266771;28;20236;-69
2023/12/16 09:11:47;;;;;;;12.90;6.80;;;6.70;99.90;;;;;;8261234;28;20191;-68
2023/12/16 09:15:48;;;;;;;12.20;6.33;;;6.60;99.90;;;;;;8266178;28;20211;-69
2023/12/16 09:19:49;;;;;;;12.33;6.40;;;6.60;99.90;;;;;;8269186;28;20187;-67
2023/12/16 09:23:50;;;;;;;13.67;6.83;;;6.60;99.90;;;;;;8267751;28;20194;-67
2023/12/16 09:27:50;;;;;;;14.00;6.63;;;6.50;99.90;;;;;;8272497;28;20241;-70
2023/12/16 09:31:51;;;;;;;13.63;7.37;;;6.60;99.90;;;;;;8270063;28;20283;-68
2023/12/16 09:35:55;;;;;;;15.93;6.87;;;6.60;99.90;;;;;;8272939;28;20312;-68
2023/12/16 09:39:56;;;;;;;11.30;6.23;;;6.70;99.90;;;;;;8269424;28;20688;-67
2023/12/16 09:44:03;;;;;;;15.73;6.77;;;6.70;99.90;;;;;;8270051;28;20210;-68
2023/12/16 09:48:04;;;;;;;12.90;5.87;;;6.80;99.90;;;;;;8265252;28;20258;-68
2023/12/16 09:52:05;;;;;;;12.90;6.07;;;6.90;99.90;;;;;;8269212;28;20201;-68
2023/12/16 09:56:07;;;;;;;14.63;6.23;;;7.00;99.90;;;;;;8281600;28;20251;-67
2023/12/16 10:00:09;;;;;;;10.20;5.43;;;6.80;99.90;;;;;;8269952;28;20203;-68
2023/12/16 10:04:10;;;;;;;14.17;5.97;;;6.70;99.90;;;;;;8268505;28;20198;-70
2023/12/16 10:08:10;;;;;;;9.60;5.40;;;6.80;99.90;;;;;;8269880;28;20262;-68
2023/12/16 10:12:12;;;;;;;11.93;5.77;;;6.90;99.90;;;;;;8261257;28;20253;-69
2023/12/16 10:16:17;;;;;;;12.50;5.73;;;7.00;99.90;;;;;;8266470;28;20254;-68
2023/12/16 10:20:18;;;;;;;10.63;5.07;;;7.10;99.90;;;;;;8267915;28;20198;-67
2023/12/16 10:24:19;;;;;;;12.37;5.27;;;7.30;99.90;;;;;;8264546;28;20183;-68
2023/12/16 10:28:20;;;;;;;7.43;4.57;;;7.20;99.90;;;;;;8268546;28;20256;-67
2023/12/16 10:32:21;;;;;;;13.83;5.07;;;7.20;99.90;;;;;;8276372;28;20182;-67
2023/12/16 10:36:21;;;;;;;9.47;4.80;;;7.20;99.90;;;;;;8276820;28;20211;-70
2023/12/16 10:40:23;;;;;;;13.40;5.00;;;7.40;99.90;;;;;;8283404;28;20187;-67
2023/12/16 10:44:24;;;;;;;9.20;4.60;;;7.40;26.10;;;;;;8276565;28;20210;-66
2023/12/16 10:48:27;;;;;;;14.70;4.40;;;7.40;44.90;;;;;;8286606;28;20195;-66
2023/12/16 10:52:41;;;;;;;10.27;4.00;;;7.50;58.10;;;;;;8276101;28;20183;-69
2023/12/16 10:56:55;;;;;;;6.70;3.70;;;7.60;1.00;;;;;;8276703;28;20215;-68
2023/12/16 11:01:28;;;;;;;9.33;4.00;;;7.70;1.00;;;;;;8275783;28;20188;-67
2023/12/16 11:05:32;;;;;;;11.47;4.00;;;7.80;1.00;;;;;;8275020;28;20206;-68
2023/12/16 11:09:33;;;;;;;11.37;3.73;;;7.60;99.90;;;;;;8269843;28;20222;-69
2023/12/16 11:13:36;;;;;;;9.30;3.80;;;7.50;99.90;;;;;;8290768;28;20302;-69
2023/12/16 11:18:03;;;;;;;10.33;3.90;;;7.40;99.90;;;;;;8276866;28;20212;-68
2023/12/16 11:22:03;;;;;;;12.13;3.77;;;7.40;99.90;;;;;;8274137;28;20203;-68
2023/12/16 11:26:05;;;;;;;7.83;3.60;;;7.40;67.50;;;;;;8277233;28;20309;-67
2023/12/16 11:30:11;;;;;;;7.73;3.20;;;7.40;68.90;;;;;;8272345;28;20203;-68
2023/12/16 11:34:38;;;;;;;10.60;3.33;;;7.40;36.00;;;;;;8275927;28;20203;-69
2023/12/16 11:38:44;;;;;;;7.37;3.37;;;7.50;55.90;;;;;;8287364;28;20186;-67
2023/12/16 11:42:49;;;;;;;11.33;4.07;;;7.40;27.00;;;;;;8274763;28;20218;-67
2023/12/16 11:46:50;;;;;;;6.93;2.63;;;7.50;36.20;;;;;;8273410;28;20218;-68
2023/12/16 11:50:51;;;;;;;9.77;3.20;;;7.40;20.80;;;;;;8267469;28;20214;-68
2023/12/16 11:54:57;;;;;;;8.13;2.90;;;7.40;1.00;;;;;;8276141;28;20207;-68
2023/12/16 11:58:58;;;;;;;9.43;2.80;;;7.40;12.20;;;;;;8270404;28;20190;-68
2023/12/16 12:03:00;;;;;;;6.50;2.73;;;7.50;4.60;;;;;;8272498;28;20191;-67
2023/12/16 12:07:01;;;;;;;7.03;3.17;;;7.50;1.00;;;;;;8272318;28;20215;-68
2023/12/16 12:11:06;;;;;;;7.90;3.60;;;7.60;1.00;;;;;;8284702;28;20195;-68
2023/12/16 12:15:08;;;;;;;5.07;2.80;;;7.50;1.00;;;;;;8271329;28;20239;-67
2023/12/16 12:19:09;;;;;;;9.37;2.97;;;7.50;1.00;;;;;;8267932;28;20448;-67
2023/12/16 12:23:11;;;;;;;5.83;2.53;;;7.50;1.00;;;;;;8270975;28;20187;-67
2023/12/16 12:27:12;;;;;;;7.93;2.60;;;7.60;1.00;;;;;;8270875;28;20249;-67
2023/12/16 12:31:13;;;;;;;9.20;3.10;;;7.60;1.00;;;;;;8278465;28;20183;-68
2023/12/16 12:35:16;;;;;;;5.73;2.87;;;7.70;1.00;;;;;;8273571;28;20210;-68
2023/12/16 12:39:18;;;;;;;9.13;2.57;;;7.70;1.00;;;;;;8272218;28;20191;-67
2023/12/16 12:43:28;;;;;;;6.30;2.67;;;7.60;1.00;;;;;;8267525;28;20204;-66
2023/12/16 12:47:35;;;;;;;8.27;2.47;;;7.60;1.00;;;;;;8286585;28;20203;-67
2023/12/16 12:51:46;;;;;;;9.67;2.43;;;7.60;1.00;;;;;;8279142;28;20246;-69
2023/12/16 12:55:48;;;;;;;8.63;2.73;;;7.60;1.00;;;;;;8269877;28;20212;-67
2023/12/16 12:59:51;;;;;;;6.33;2.77;;;7.40;1.00;;;;;;8279780;28;20187;-67
2023/12/16 13:03:54;;;;;;;9.97;2.70;;;7.40;1.00;;;;;;8270260;28;20274;-68
2023/12/16 13:07:54;;;;;;;5.70;2.60;;;7.40;1.00;;;;;;8265569;28;20506;-68
2023/12/16 13:11:55;;;;;;;6.93;2.70;;;7.30;1.00;;;;;;8267670;28;20194;-68
2023/12/16 13:15:56;;;;;;;7.40;2.63;;;7.30;1.00;;;;;;8267673;28;20316;-67
2023/12/16 13:19:57;;;;;;;10.07;3.00;;;7.30;1.00;;;;;;8270878;28;20187;-68
2023/12/16 13:23:58;;;;;;;9.00;2.30;;;7.30;1.00;;;;;;8271680;28;20492;-69
2023/12/16 13:28:00;;;;;;;5.63;2.50;;;7.40;1.00;;;;;;8268603;28;20269;-67
2023/12/16 13:32:01;;;;;;;7.77;2.47;;;7.50;1.00;;;;;;8270855;28;20189;-68
2023/12/16 13:36:03;;;;;;;12.53;2.93;;;7.50;1.00;;;;;;8269614;28;20208;-68
2023/12/16 13:40:05;;;;;;;8.50;2.90;;;7.50;1.00;;;;;;8268259;28;20194;-69
2023/12/16 13:44:06;;;;;;;9.43;3.10;;;7.50;1.00;;;;;;8271511;28;20219;-68
2023/12/16 13:48:07;;;;;;;9.73;3.10;;;7.50;1.00;;;;;;8265318;28;20225;-68
2023/12/16 13:52:08;;;;;;;8.20;2.57;;;7.40;1.00;;;;;;8267702;28;20228;-68
2023/12/16 13:56:09;;;;;;;9.30;3.17;;;7.30;1.00;;;;;;8281183;28;20230;-66
2023/12/16 14:00:10;;;;;;;7.87;3.00;;;7.10;1.00;;;;;;8267733;28;20191;-68
2023/12/16 14:04:11;;;;;;;11.47;3.57;;;6.90;1.00;;;;;;8261152;28;20184;-70
2023/12/16 14:08:12;;;;;;;7.90;2.60;;;6.80;1.00;;;;;;8261477;28;20191;-67
2023/12/16 14:12:13;;;;;;;8.33;3.10;;;6.60;1.00;;;;;;8267055;28;20222;-67
2023/12/16 14:16:13;;;;;;;9.70;3.30;;;6.50;1.00;;;;;;8270664;28;20214;-67
2023/12/16 14:20:14;;;;;;;6.70;3.67;;;6.40;1.00;;;;;;8264279;28;20289;-66
2023/12/16 14:24:15;;;;;;;8.67;3.17;;;6.30;1.00;;;;;;8266884;28;20197;-67
2023/12/16 14:28:15;;;;;;;7.67;3.50;;;6.10;1.00;;;;;;8268070;28;20202;-66
2023/12/16 14:32:16;;;;;;;9.17;3.47;;;6.00;1.00;;;;;;8264120;28;20470;-66
2023/12/16 14:36:17;;;;;;;5.60;3.13;;;5.90;2.50;;;;;;8268523;28;20280;-66
2023/12/16 14:40:18;;;;;;;7.53;3.20;;;5.80;19.70;;;;;;8265279;28;20194;-67
2023/12/16 14:44:18;;;;;;;10.43;3.90;;;5.80;30.10;;;;;;8268758;28;20208;-66
2023/12/16 14:48:19;;;;;;;7.03;3.70;;;5.70;48.40;;;;;;8264513;28;20202;-65
2023/12/16 14:52:20;;;;;;;9.20;3.80;;;5.60;66.20;;;;;;8266629;28;20191;-66
2023/12/16 14:56:21;;;;;;;8.70;3.50;;;5.60;61.70;;;;;;8267293;28;20214;-66
2023/12/16 15:00:28;;;;;;;6.33;3.77;;;5.60;76.20;;;;;;8267202;28;20319;-67
2023/12/16 15:04:28;;;;;;;10.83;3.97;;;5.60;91.10;;;;;;8264258;28;20206;-67
2023/12/16 15:08:29;;;;;;;8.90;4.17;;;5.60;93.10;;;;;;8263473;28;20197;-67
2023/12/16 15:12:30;;;;;;;12.47;4.33;;;5.50;84.80;;;;;;8272897;28;20183;-66
2023/12/16 15:16:31;;;;;;;12.93;4.40;;;5.50;85.90;;;;;;8273282;28;20237;-67
2023/12/16 15:20:32;;;;;;;9.60;4.57;;;5.50;62.60;;;;;;8273200;28;20215;-67
2023/12/16 15:24:34;;;;;;;11.53;3.90;;;5.50;55.70;;;;;;8275254;28;20188;-68
2023/12/16 15:28:35;;;;;;;9.47;4.60;;;5.60;34.90;;;;;;8275069;28;20187;-70
2023/12/16 15:32:35;;;;;;;8.27;3.80;;;5.60;25.40;;;;;;8277411;28;20257;-68
2023/12/16 15:36:39;;;;;;;9.33;4.00;;;5.60;14.50;;;;;;8271740;28;20214;-68
2023/12/16 15:40:42;;;;;;;10.13;4.37;;;5.60;9.80;;;;;;8275997;28;20557;-67
2023/12/16 15:44:44;;;;;;;8.80;3.87;;;5.70;17.40;;;;;;8275992;28;20466;-67
2023/12/16 15:48:44;;;;;;;12.17;3.93;;;5.70;1.00;;;;;;8272736;28;20201;-66
2023/12/16 15:52:45;;;;;;;10.07;4.87;;;5.80;3.10;;;;;;8272420;28;20191;-67
2023/12/16 15:56:46;;;;;;;9.13;4.80;;;5.80;1.00;;;;;;8274639;28;20262;-67
2023/12/16 16:00:47;;;;;;;11.43;3.77;;;5.70;1.00;;;;;;8270653;28;20223;-68
2023/12/16 16:04:48;;;;;;;11.37;4.37;;;5.80;1.00;;;;;;8275883;28;20204;-66
2023/12/16 16:08:49;;;;;;;11.33;4.77;;;5.90;1.00;;;;;;8274009;28;20194;-66
2023/12/16 16:12:50;;;;;;;9.13;3.77;;;6.00;1.00;;;;;;8271794;28;20292;-67
2023/12/16 16:16:51;;;;;;;7.60;3.40;;;6.00;1.00;;;;;;8276093;28;20226;-66
2023/12/16 16:20:52;;;;;;;7.97;3.33;;;6.10;1.00;;;;;;8276108;28;20190;-68
2023/12/16 16:24:53;;;;;;;12.63;4.37;;;6.10;1.00;;;;;;8276967;28;20179;-69
2023/12/16 16:28:54;;;;;;;7.80;4.37;;;6.20;1.00;;;;;;8274981;28;20492;-68
2023/12/16 16:32:54;;;;;;;12.73;5.13;;;6.20;1.00;;;;;;8272104;28;20275;-67
2023/12/16 16:36:55;;;;;;;10.57;3.90;;;6.20;1.00;;;;;;8277223;28;20214;-67
2023/12/16 16:40:56;;;;;;;13.33;5.83;;;6.30;1.00;;;;;;8267985;28;20281;-67
2023/12/16 16:44:57;;;;;;;14.50;5.53;;;6.40;1.00;;;;;;8280507;28;20211;-67
2023/12/16 16:48:58;;;;;;;10.00;4.73;;;6.40;1.00;;;;;;8271317;28;20230;-67
2023/12/16 16:52:59;;;;;;;10.87;5.17;;;6.40;1.00;;;;;;8265304;28;20218;-67
2023/12/16 16:57:00;;;;;;;10.27;5.20;;;6.40;1.00;;;;;;8276624;28;20211;-66
2023/12/16 17:01:00;;;;;;;11.03;4.87;;;6.40;1.00;;;;;;8270394;28;20217;-68
2023/12/16 17:05:03;;;;;;;9.40;4.57;;;6.50;1.00;;;;;;8268803;28;20190;-67
2023/12/16 17:09:09;;;;;;;14.07;4.83;;;6.40;1.00;;;;;;8266107;28;20273;-66
2023/12/16 17:13:10;;;;;;;8.20;4.20;;;6.50;1.00;;;;;;8271061;28;20211;-66
2023/12/16 17:17:11;;;;;;;9.53;4.30;;;6.40;1.00;;;;;;8273107;28;20292;-67
2023/12/16 17:21:12;;;;;;;8.33;4.20;;;6.50;1.00;;;;;;8271087;28;20252;-66
2023/12/16 17:25:13;;;;;;;8.93;3.90;;;6.50;1.00;;;;;;8266743;28;20191;-66
2023/12/16 17:29:14;;;;;;;11.23;4.10;;;6.50;1.00;;;;;;8270971;28;20258;-66
2023/12/16 17:33:18;;;;;;;8.33;3.90;;;6.50;1.00;;;;;;8268279;28;20188;-65
2023/12/16 17:37:19;;;;;;;7.87;3.63;;;6.50;1.00;;;;;;8270207;28;20210;-66
2023/12/16 17:41:19;;;;;;;11.63;4.23;;;6.50;1.00;;;;;;8268274;28;21689;-66
2023/12/16 17:45:20;;;;;;;9.33;4.03;;;6.50;1.00;;;;;;8258898;28;20195;-67
2023/12/16 17:49:22;;;;;;;13.07;3.93;;;6.60;1.00;;;;;;8269692;28;20191;-66
2023/12/16 17:53:23;;;;;;;12.60;3.93;;;6.60;1.00;;;;;;8264508;28;20214;-68
2023/12/16 17:57:23;;;;;;;10.13;4.20;;;6.60;1.00;;;;;;8265750;28;20226;-67
2023/12/16 18:01:28;;;;;;;6.90;3.80;;;6.60;1.00;;;;;;8266942;28;20183;-66
2023/12/16 18:05:28;;;;;;;13.00;4.67;;;6.60;1.00;;;;;;8277360;28;20187;-66
2023/12/16 18:09:29;;;;;;;8.37;3.97;;;6.60;1.00;;;;;;8263408;28;20190;-66
2023/12/16 18:13:30;;;;;;;10.40;4.70;;;6.60;1.00;;;;;;8264348;28;20246;-67
2023/12/16 18:17:31;;;;;;;11.67;4.43;;;6.60;1.00;;;;;;8280066;28;20235;-67
2023/12/16 18:21:32;;;;;;;11.43;4.20;;;6.60;1.00;;;;;;8281649;28;20198;-67
2023/12/16 18:25:33;;;;;;;11.23;4.13;;;6.60;1.00;;;;;;8285711;28;20205;-68
2023/12/16 18:29:37;;;;;;;9.50;3.90;;;6.60;1.00;;;;;;8276888;28;20182;-68
2023/12/16 18:33:38;;;;;;;10.70;4.83;;;6.70;1.00;;;;;;8254936;28;20205;-67
2023/12/16 18:37:42;;;;;;;9.63;4.37;;;6.60;1.00;;;;;;8272493;28;20241;-70
2023/12/16 18:41:43;;;;;;;10.97;4.67;;;6.70;1.00;;;;;;8272544;28;20272;-67
2023/12/16 18:45:53;;;;;;;11.83;4.20;;;6.60;1.00;;;;;;8265784;28;20199;-68
2023/12/16 18:49:54;;;;;;;9.13;4.50;;;6.50;1.00;;;;;;8273475;28;20198;-69
2023/12/16 18:53:57;;;;;;;11.10;5.07;;;6.60;1.00;;;;;;8290088;28;20194;-67
2023/12/16 18:57:58;;;;;;;10.60;4.77;;;6.60;1.00;;;;;;8279115;28;20210;-67
2023/12/16 19:02:00;;;;;;;13.17;5.03;;;6.60;1.00;;;;;;8282853;28;20209;-73
2023/12/16 19:06:00;;;;;;;11.77;4.37;;;6.60;1.00;;;;;;8280691;28;20230;-68
2023/12/16 19:10:06;;;;;;;9.67;4.47;;;6.50;1.00;;;;;;8286247;28;20223;-69
2023/12/16 19:14:07;;;;;;;12.63;5.00;;;6.50;1.00;;;;;;8279752;28;20195;-67
2023/12/16 19:18:08;;;;;;;7.23;4.73;;;6.50;1.00;;;;;;8291837;28;20281;-68
2023/12/16 19:22:10;;;;;;;14.30;5.27;;;6.40;13.00;;;;;;8285044;28;20277;-69
2023/12/16 19:26:12;;;;;;;13.67;5.07;;;6.40;23.20;;;;;;8277818;28;20191;-66
2023/12/16 19:30:14;;;;;;;9.07;4.93;;;6.40;39.90;;;;;;8279368;28;20296;-68
2023/12/16 19:34:15;;;;;;;10.77;5.40;;;6.40;59.70;;;;;;8280661;28;20286;-67
2023/12/16 19:38:16;;;;;;;10.10;4.67;;;6.30;72.80;;;;;;8278182;28;20223;-67
2023/12/16 19:42:17;;;;;;;16.13;5.20;;;6.30;99.30;;;;;;8277911;28;20210;-66
2023/12/16 19:46:18;;;;;;;10.03;4.93;;;6.40;99.90;;;;;;8274044;28;20199;-67
2023/12/16 19:50:19;;;;;;;9.73;4.60;;;6.40;99.90;;;;;;8301883;28;20220;-65
2023/12/16 19:54:19;;;;;;;8.63;4.80;;;6.30;99.90;;;;;;8282701;28;20191;-66
2023/12/16 19:58:21;;;;;;;11.43;4.73;;;6.30;99.90;;;;;;8284478;28;20187;-65
2023/12/16 20:02:22;;;;;;;13.17;5.50;;;6.30;99.90;;;;;;8281964;28;20250;-66
2023/12/16 20:06:25;;;;;;;11.53;5.30;;;6.30;99.90;;;;;;8270854;28;20189;-67
2023/12/16 20:10:26;;;;;;;13.67;5.20;;;6.30;99.90;;;;;;8267680;28;20186;-66
2023/12/16 20:14:27;;;;;;;10.17;5.30;;;6.30;99.90;;;;;;8285818;28;20210;-65
2023/12/16 20:18:28;;;;;;;12.97;5.43;;;6.30;99.90;;;;;;8272486;28;20191;-66
2023/12/16 20:22:29;;;;;;;14.97;5.53;;;6.30;99.90;;;;;;8269213;28;20307;-65
2023/12/16 20:26:30;;;;;;;15.97;5.50;;;6.30;99.90;;;;;;8280288;28;20186;-66
2023/12/16 20:30:31;;;;;;;17.97;6.03;;;6.30;99.90;;;;;;8276876;28;20195;-68
2023/12/16 20:34:32;;;;;;;11.80;5.20;;;6.30;99.90;;;;;;8278380;28;20210;-69
2023/12/16 20:42:52;;;;;;;12.07;4.97;;;6.30;99.90;;;;;;8287705;28;20202;-71
2023/12/16 20:46:53;;;;;;;15.17;5.60;;;6.30;99.90;;;;;;8286032;28;20302;-68
2023/12/16 20:50:55;;;;;;;13.13;5.17;;;6.30;99.90;;;;;;8280372;28;20950;-71
2023/12/16 20:54:56;;;;;;;9.57;4.30;;;6.30;99.90;;;;;;8287290;28;20233;-68
2023/12/16 20:59:02;;;;;;;9.17;4.63;;;6.30;99.90;;;;;;8275597;28;20189;-68
2023/12/16 21:03:07;;;;;;;9.33;4.73;;;6.30;99.90;;;;;;8273291;28;20202;-69